Time,TemperatureF,DewpointF,PressureIn,WindDirection,WindDirectionDegrees,WindSpeedMPH,WindSpeedGustMPH,Humidity,HourlyPrecipIn,Conditions,Clouds,dailyrainin,SoftwareType,DateUTC
2013-06-08 00:01:00,68.7,67.5,29.89,SW,235,1.0,3.0,96,0.00,RA,,0.00,WeatherDisplay:10.37,2013-06-08 04:01:00,
2013-06-08 00:15:00,68.5,67.3,29.88,SW,235,0.0,3.0,96,0.01,OVC,,0.01,WeatherDisplay:10.37,2013-06-08 04:15:00,
2013-06-08 00:31:00,68.4,67.2,29.88,SW,235,0.0,2.0,96,0.00,-RA,,0.01,WeatherDisplay:10.37,2013-06-08 04:31:00,
2013-06-08 00:46:00,68.2,67.0,29.88,SW,235,0.0,0.0,96,0.00,-RA,,0.01,WeatherDisplay:10.37,2013-06-08 04:46:00,
2013-06-08 01:03:00,68.0,66.8,29.88,SW,235,0.0,1.0,96,0.00,-RA,,0.01,WeatherDisplay:10.37,2013-06-08 05:03:00,
2013-06-08 01:15:00,67.7,66.5,29.88,SW,235,0.0,0.0,96,0.00,-RA,,0.01,WeatherDisplay:10.37,2013-06-08 05:15:00,
2013-06-08 01:31:00,67.3,66.1,29.88,SW,235,0.0,0.0,96,0.00,BKN,,0.01,WeatherDisplay:10.37,2013-06-08 05:31:00,
2013-06-08 01:45:00,67.2,66.0,29.89,SW,235,0.0,0.0,96,0.00,BKN,,0.01,WeatherDisplay:10.37,2013-06-08 05:45:00,
2013-06-08 02:01:00,67.4,66.2,29.89,SW,235,0.0,2.0,96,0.00,BKN,,0.01,WeatherDisplay:10.37,2013-06-08 06:01:00,
2013-06-08 02:15:00,67.4,66.2,29.90,SW,235,0.0,2.0,96,0.00,BKN,,0.01,WeatherDisplay:10.37,2013-06-08 06:15:00,
2013-06-08 02:31:00,67.2,66.0,29.90,SW,235,0.0,2.0,96,0.00,BKN,,0.01,WeatherDisplay:10.37,2013-06-08 06:31:00,
2013-06-08 02:45:00,67.1,65.9,29.90,SW,235,0.0,2.0,96,0.00,BKN,,0.01,WeatherDisplay:10.37,2013-06-08 06:45:00,
2013-06-08 03:01:00,66.9,65.7,29.89,SW,235,0.0,0.0,96,0.00,OVC,,0.01,WeatherDisplay:10.37,2013-06-08 07:01:00,
2013-06-08 03:15:00,66.7,65.5,29.89,SW,235,0.0,0.0,96,0.00,OVC,,0.01,WeatherDisplay:10.37,2013-06-08 07:15:00,
2013-06-08 03:31:00,66.6,65.4,29.89,SW,235,0.0,0.0,96,0.00,OVC,,0.01,WeatherDisplay:10.37,2013-06-08 07:31:00,
2013-06-08 03:45:00,66.6,65.7,29.90,SW,235,0.0,0.0,97,0.00,OVC,,0.01,WeatherDisplay:10.37,2013-06-08 07:45:00,
2013-06-08 04:01:00,66.6,65.7,29.90,SW,235,0.0,0.0,97,0.00,OVC,,0.01,WeatherDisplay:10.37,2013-06-08 08:01:00,
2013-06-08 04:15:00,66.6,65.7,29.90,SW,235,0.0,2.0,97,0.01,RA,,0.02,WeatherDisplay:10.37,2013-06-08 08:15:00,
2013-06-08 04:31:00,66.5,65.3,29.90,SW,235,0.0,1.0,96,0.01,OVC,,0.03,WeatherDisplay:10.37,2013-06-08 08:31:00,
2013-06-08 04:45:00,66.4,65.5,29.91,SW,235,0.0,0.0,97,0.00,OVC,,0.03,WeatherDisplay:10.37,2013-06-08 08:45:00,
2013-06-08 05:01:00,66.4,65.5,29.91,SW,235,0.0,1.0,97,0.04,RA,,0.07,WeatherDisplay:10.37,2013-06-08 09:01:00,
2013-06-08 05:15:00,66.3,65.4,29.91,SW,235,0.0,1.0,97,0.03,RA,,0.10,WeatherDisplay:10.37,2013-06-08 09:15:00,
2013-06-08 05:31:00,66.2,65.3,29.92,SW,235,0.0,2.0,97,0.01,OVC,,0.11,WeatherDisplay:10.37,2013-06-08 09:31:00,
2013-06-08 05:45:00,66.1,65.2,29.92,SW,235,0.0,2.0,97,0.01,RA,,0.12,WeatherDisplay:10.37,2013-06-08 09:45:00,
2013-06-08 06:01:00,66.0,64.8,29.92,SW,235,0.0,0.0,96,0.00,OVC,,0.12,WeatherDisplay:10.37,2013-06-08 10:01:00,
2013-06-08 06:15:00,66.0,65.1,29.92,SW,235,0.0,0.0,97,0.00,OVC,,0.12,WeatherDisplay:10.37,2013-06-08 10:15:00,
2013-06-08 06:31:00,66.0,65.1,29.93,SW,235,0.0,0.0,97,0.00,OVC,,0.12,WeatherDisplay:10.37,2013-06-08 10:31:00,
2013-06-08 06:45:00,66.1,64.9,29.94,WSW,237,0.0,3.0,96,0.04,RA,,0.16,WeatherDisplay:10.37,2013-06-08 10:45:00,
2013-06-08 07:01:00,63.9,62.7,29.97,NW,320,10.0,17.0,96,0.17,RA,,0.33,WeatherDisplay:10.37,2013-06-08 11:01:00,
2013-06-08 07:15:00,62.2,60.7,29.97,NW,315,5.0,15.0,95,0.04,RA,,0.37,WeatherDisplay:10.37,2013-06-08 11:15:00,
2013-06-08 07:31:00,61.7,60.5,29.97,NW,306,0.0,12.0,96,0.02,-RA,,0.39,WeatherDisplay:10.37,2013-06-08 11:31:00,
2013-06-08 07:45:00,61.6,60.4,29.98,WNW,298,2.0,7.0,96,0.01,-RA,,0.40,WeatherDisplay:10.37,2013-06-08 11:45:00,
2013-06-08 08:01:00,61.8,60.6,29.99,WNW,296,2.0,5.0,96,0.01,-RA,,0.41,WeatherDisplay:10.37,2013-06-08 12:01:00,
2013-06-08 08:15:00,61.3,60.1,29.98,NNW,338,1.0,5.0,96,0.01,-RA,,0.42,WeatherDisplay:10.37,2013-06-08 12:15:00,
2013-06-08 08:31:00,61.3,60.1,29.99,NE,56,0.0,3.0,96,0.01,-RA,,0.43,WeatherDisplay:10.37,2013-06-08 12:31:00,
2013-06-08 08:45:00,61.7,60.5,29.98,NE,56,1.0,3.0,96,0.00,-RA,,0.43,WeatherDisplay:10.37,2013-06-08 12:45:00,
2013-06-08 09:01:00,63.1,62.2,29.99,NE,41,2.0,4.0,97,0.00,-RA,,0.43,WeatherDisplay:10.37,2013-06-08 13:01:00,
2013-06-08 09:15:00,62.7,61.6,30.00,North,359,0.0,5.0,96,0.00,-RA,,0.43,WeatherDisplay:10.37,2013-06-08 13:15:00,
2013-06-08 09:31:00,63.7,62.6,30.01,North,349,3.0,5.0,96,0.00,OVC,,0.43,WeatherDisplay:10.37,2013-06-08 13:31:00,
2013-06-08 09:45:00,64.1,62.6,30.01,NNW,345,0.0,5.0,95,0.00,OVC,,0.43,WeatherDisplay:10.37,2013-06-08 13:45:00,
2013-06-08 10:01:00,65.3,63.2,30.02,North,355,1.0,4.0,93,0.00,OVC,,0.43,WeatherDisplay:10.37,2013-06-08 14:01:00,
2013-06-08 10:15:00,65.3,62.3,30.03,North,350,1.0,4.0,90,0.00,OVC,,0.43,WeatherDisplay:10.37,2013-06-08 14:15:00,
2013-06-08 10:31:00,66.1,63.0,30.03,NNW,328,1.0,6.0,90,0.00,SCT,,0.43,WeatherDisplay:10.37,2013-06-08 14:31:00,
2013-06-08 10:45:00,68.1,64.4,30.03,NNE,33,1.0,7.0,88,0.00,SCT,,0.43,WeatherDisplay:10.37,2013-06-08 14:45:00,
2013-06-08 11:01:00,69.0,63.0,30.04,North,2,1.0,4.0,81,0.00,SCT,,0.43,WeatherDisplay:10.37,2013-06-08 15:01:00,
2013-06-08 11:15:00,70.6,64.8,30.05,NE,38,1.0,3.0,82,0.00,SCT,,0.43,WeatherDisplay:10.37,2013-06-08 15:15:00,
2013-06-08 11:31:00,71.0,63.8,30.05,NE,36,0.0,3.0,78,0.00,CLR,,0.43,WeatherDisplay:10.37,2013-06-08 15:31:00,
2013-06-08 11:45:00,72.4,65.5,30.05,NNE,28,0.0,3.0,79,0.00,CLR,,0.43,WeatherDisplay:10.37,2013-06-08 15:45:00,
2013-06-08 12:01:00,74.3,65.5,30.05,NE,41,2.0,5.0,74,0.00,CLR,,0.43,WeatherDisplay:10.37,2013-06-08 16:01:00,
2013-06-08 12:15:00,74.0,64.0,30.05,NW,314,2.0,3.0,71,0.00,CLR,,0.43,WeatherDisplay:10.37,2013-06-08 16:15:00,
2013-06-08 12:31:00,74.4,65.2,30.04,West,281,3.0,5.0,73,0.00,FEW,,0.43,WeatherDisplay:10.37,2013-06-08 16:31:00,
2013-06-08 12:45:00,74.4,64.8,30.04,WSW,250,2.0,4.0,72,0.00,FEW,,0.43,WeatherDisplay:10.37,2013-06-08 16:45:00,
2013-06-08 13:01:00,74.9,65.3,30.04,WSW,256,1.0,4.0,72,0.00,FEW,,0.43,WeatherDisplay:10.37,2013-06-08 17:01:00,
2013-06-08 13:15:00,75.5,65.9,30.04,NW,304,1.0,4.0,72,0.00,FEW,,0.43,WeatherDisplay:10.37,2013-06-08 17:15:00,
2013-06-08 13:31:00,76.4,64.7,30.04,SW,229,1.0,8.0,67,0.00,CLR,,0.43,WeatherDisplay:10.37,2013-06-08 17:31:00,
2013-06-08 13:45:00,77.1,65.3,30.04,SW,221,1.0,4.0,67,0.00,CLR,,0.43,WeatherDisplay:10.37,2013-06-08 17:45:00,
2013-06-08 14:01:00,77.5,66.1,30.04,West,279,0.0,6.0,68,0.00,CLR,,0.43,WeatherDisplay:10.37,2013-06-08 18:01:00,
2013-06-08 14:15:00,78.4,67.4,30.04,SSW,213,1.0,8.0,69,0.00,CLR,,0.43,WeatherDisplay:10.37,2013-06-08 18:15:00,
2013-06-08 14:31:00,77.6,64.5,30.04,WNW,295,3.0,7.0,64,0.00,CLR,,0.43,WeatherDisplay:10.37,2013-06-08 18:31:00,
2013-06-08 14:45:00,78.6,64.9,30.04,SSW,203,0.0,5.0,63,0.00,CLR,,0.43,WeatherDisplay:10.37,2013-06-08 18:45:00,
2013-06-08 15:01:00,79.8,67.0,30.03,SSW,194,2.0,4.0,65,0.00,CLR,,0.43,WeatherDisplay:10.37,2013-06-08 19:01:00,
2013-06-08 15:15:00,81.0,66.8,30.03,East,80,1.0,4.0,62,0.00,CLR,,0.43,WeatherDisplay:10.37,2013-06-08 19:15:00,
2013-06-08 15:31:00,80.1,67.3,30.03,WSW,238,0.0,5.0,65,0.00,CLR,,0.43,WeatherDisplay:10.37,2013-06-08 19:31:00,
2013-06-08 15:45:00,80.4,66.2,30.02,SW,214,1.0,6.0,62,0.00,CLR,,0.43,WeatherDisplay:10.37,2013-06-08 19:45:00,
2013-06-08 16:01:00,80.7,66.9,30.02,SSW,207,1.0,7.0,63,0.00,CLR,,0.43,WeatherDisplay:10.37,2013-06-08 20:01:00,
2013-06-08 16:15:00,80.5,65.8,30.02,SW,219,3.0,6.0,61,0.00,CLR,,0.43,WeatherDisplay:10.37,2013-06-08 20:15:00,
2013-06-08 16:31:00,80.4,66.2,30.03,SSW,200,1.0,9.0,62,0.00,FEW,,0.43,WeatherDisplay:10.37,2013-06-08 20:31:00,
2013-06-08 16:45:00,80.7,66.5,30.03,SSW,197,0.0,7.0,62,0.00,FEW,,0.43,WeatherDisplay:10.37,2013-06-08 20:45:00,
2013-06-08 17:01:00,81.4,68.5,30.03,SSE,151,0.0,4.0,65,0.00,FEW,,0.43,WeatherDisplay:10.37,2013-06-08 21:01:00,
2013-06-08 17:15:00,80.4,66.2,30.04,SE,146,1.0,4.0,62,0.00,FEW,,0.43,WeatherDisplay:10.37,2013-06-08 21:15:00,
2013-06-08 17:31:00,80.0,67.2,30.04,SE,144,0.0,3.0,65,0.00,SCT,,0.43,WeatherDisplay:10.37,2013-06-08 21:31:00,
2013-06-08 17:45:00,79.8,66.6,30.04,SSW,203,1.0,6.0,64,0.00,SCT,,0.43,WeatherDisplay:10.37,2013-06-08 21:45:00,
2013-06-08 18:01:00,79.8,66.5,30.04,South,185,0.0,7.0,64,0.00,SCT,,0.43,WeatherDisplay:10.37,2013-06-08 22:01:00,
2013-06-08 18:15:00,79.6,66.3,30.05,SSE,165,1.0,3.0,64,0.00,SCT,,0.43,WeatherDisplay:10.37,2013-06-08 22:15:00,
2013-06-08 18:31:00,79.7,66.9,30.05,SSW,213,0.0,6.0,65,0.00,CLR,,0.43,WeatherDisplay:10.37,2013-06-08 22:31:00,
2013-06-08 18:45:00,80.0,67.6,30.05,SSW,206,0.0,3.0,66,0.00,CLR,,0.43,WeatherDisplay:10.37,2013-06-08 22:45:00,
2013-06-08 19:01:00,80.0,67.2,30.05,SSW,206,0.0,1.0,65,0.00,CLR,,0.43,WeatherDisplay:10.37,2013-06-08 23:01:00,
2013-06-08 19:15:00,79.6,67.2,30.06,SSW,205,0.0,4.0,66,0.00,CLR,,0.43,WeatherDisplay:10.37,2013-06-08 23:15:00,
2013-06-08 19:31:00,77.9,67.7,30.06,SSW,204,0.0,1.0,71,0.00,SCT,,0.43,WeatherDisplay:10.37,2013-06-08 23:31:00,
2013-06-08 19:45:00,76.9,67.6,30.06,SSW,204,0.0,0.0,73,0.00,SCT,,0.43,WeatherDisplay:10.37,2013-06-08 23:45:00,
2013-06-08 20:01:00,75.8,67.3,30.07,SSW,204,0.0,0.0,75,0.00,SCT,,0.43,WeatherDisplay:10.37,2013-06-09 00:01:00,
2013-06-08 20:15:00,75.0,68.0,30.08,SSW,204,0.0,0.0,79,0.00,SCT,,0.43,WeatherDisplay:10.37,2013-06-09 00:15:00,
2013-06-08 20:31:00,73.6,67.1,30.08,SSW,205,0.0,0.0,80,0.00,CLR,,0.43,WeatherDisplay:10.37,2013-06-09 00:31:00,
2013-06-08 20:45:00,72.5,66.4,30.09,SSW,204,0.0,0.0,81,0.00,CLR,,0.43,WeatherDisplay:10.37,2013-06-09 00:45:00,
2013-06-08 21:01:00,71.7,66.6,30.09,SSW,205,0.0,0.0,84,0.00,CLR,,0.43,WeatherDisplay:10.37,2013-06-09 01:01:00,
2013-06-08 21:15:00,70.8,66.1,30.10,SSW,204,0.0,0.0,85,0.00,CLR,,0.43,WeatherDisplay:10.37,2013-06-09 01:15:00,
2013-06-08 21:31:00,70.3,66.2,30.11,SSW,204,0.0,0.0,87,0.00,CLR,,0.43,WeatherDisplay:10.37,2013-06-09 01:31:00,
2013-06-08 21:45:00,70.0,66.3,30.12,SSW,205,0.0,0.0,88,0.00,CLR,,0.43,WeatherDisplay:10.37,2013-06-09 01:45:00,
2013-06-08 22:00:00,69.7,66.0,30.12,SSW,205,0.0,0.0,88,0.00,CLR,,0.43,WeatherDisplay:10.37,2013-06-09 02:00:00,
2013-06-08 22:15:00,69.5,66.1,30.13,SSW,204,0.0,0.0,89,0.00,CLR,,0.43,WeatherDisplay:10.37,2013-06-09 02:15:00,
2013-06-08 22:31:00,69.2,66.1,30.13,SSW,205,0.0,0.0,90,0.00,BKN,,0.43,WeatherDisplay:10.37,2013-06-09 02:31:00,
2013-06-08 22:45:00,69.2,66.1,30.13,SSW,205,0.0,0.0,90,0.00,BKN,,0.43,WeatherDisplay:10.37,2013-06-09 02:45:00,
2013-06-08 23:01:00,69.0,66.3,30.14,SSW,205,0.0,0.0,91,0.00,BKN,,0.43,WeatherDisplay:10.37,2013-06-09 03:01:00,
2013-06-08 23:15:00,68.7,66.0,30.14,SSW,205,0.0,0.0,91,0.00,BKN,,0.43,WeatherDisplay:10.37,2013-06-09 03:15:00,
2013-06-08 23:31:00,68.5,65.8,30.14,SSW,205,0.0,1.0,91,0.00,BKN,,0.43,WeatherDisplay:10.37,2013-06-09 03:31:00,
2013-06-08 23:45:00,68.3,65.6,30.14,SSW,205,0.0,0.0,91,0.00,BKN,,0.43,WeatherDisplay:10.37,2013-06-09 03:45:00,